Terminal Aerodrome Forecast
Issued by NWS Pocatello, ID

Home | Current Version | Previous Version | Text Only | Print | Product List | Glossary On
Versions: 1 2 3 4 5 6 7 8 9 10 11 12
000
FTUS45 KPIH 232320
TAFBYI
TAF
KBYI 232320Z 2400/2424 27012G22KT P6SM SKC
     FM240300 05015G30KT P6SM VCSH BKN050
     FM240800 10010KT P6SM SCT050 WS020/05030KT
     FM241400 09007KT P6SM SKC=

USA.gov is the U.S. government's official web portal to all federal, state and local government web resources and services.